createdAt,value
2022-11-07T00:00:42.929Z,1.87
2022-11-07T00:03:14.261Z,1.73
2022-11-07T00:05:42.380Z,1.70
2022-11-07T00:08:10.002Z,2.23
2022-11-07T00:10:39.019Z,1.20
2022-11-07T00:13:06.768Z,1.77
2022-11-07T00:15:34.434Z,1.40
2022-11-07T00:18:02.132Z,1.40
2022-11-07T00:20:29.835Z,2.17
2022-11-07T00:22:57.471Z,1.40
2022-11-07T00:25:25.108Z,2.60
2022-11-07T00:27:54.105Z,1.00
2022-11-07T00:30:21.812Z,3.70
2022-11-07T00:32:49.576Z,1.30
2022-11-07T00:35:17.209Z,1.07
2022-11-07T00:37:44.889Z,1.57
2022-11-07T00:40:13.169Z,2.23
2022-11-07T00:42:41.138Z,1.10
2022-11-07T00:45:11.798Z,2.90
2022-11-07T00:47:39.439Z,1.07
2022-11-07T00:50:08.311Z,5.10
2022-11-07T00:52:36.008Z,1.00
2022-11-07T00:55:04.021Z,1.20
2022-11-07T00:57:31.942Z,1.30
2022-11-07T00:59:59.660Z,1.40
2022-11-07T01:02:28.983Z,2.13
2022-11-07T01:05:10.653Z,2.40
2022-11-07T01:07:38.784Z,1.83
2022-11-07T01:10:08.539Z,7.23
2022-11-07T01:12:37.971Z,2.47
2022-11-07T01:15:06.369Z,3.33
2022-11-07T01:17:35.468Z,1.53
2022-11-07T01:20:03.248Z,2.17
2022-11-07T01:22:30.925Z,4.57
2022-11-07T01:24:58.587Z,2.70
2022-11-07T01:27:26.277Z,1.23
2022-11-07T01:29:53.932Z,1.27
2022-11-07T01:32:21.811Z,1.33
2022-11-07T01:34:50.885Z,1.40
2022-11-07T01:37:18.691Z,1.00
2022-11-07T01:39:46.363Z,2.90
2022-11-07T01:42:14.207Z,3.70
2022-11-07T01:44:57.118Z,2.30
2022-11-07T01:47:30.064Z,1.20
2022-11-07T01:50:00.094Z,1.07
2022-11-07T01:52:30.274Z,1.57
2022-11-07T01:55:02.505Z,2.13
2022-11-07T01:57:33.261Z,2.50
2022-11-07T02:00:03.916Z,1.20
2022-11-07T02:02:33.749Z,1.60
2022-11-07T02:05:04.704Z,1.30
2022-11-07T02:07:33.801Z,1.20
2022-11-07T02:10:02.448Z,1.97
2022-11-07T02:12:30.372Z,0.90
2022-11-07T02:14:58.383Z,2.07
2022-11-07T02:17:26.188Z,1.40
2022-11-07T02:19:56.550Z,1.50
2022-11-07T02:22:36.289Z,1.30
2022-11-07T02:25:08.997Z,2.33
2022-11-07T02:27:39.243Z,1.13
2022-11-07T02:30:10.119Z,1.50
2022-11-07T02:32:38.198Z,1.30
2022-11-07T02:35:27.884Z,1.20
2022-11-07T02:37:57.066Z,1.37
2022-11-07T02:40:24.791Z,1.57
2022-11-07T02:42:52.597Z,1.50
2022-11-07T02:45:25.283Z,2.93
2022-11-07T02:47:53.113Z,1.10
2022-11-07T02:50:20.947Z,2.30
2022-11-07T02:52:48.636Z,1.20
2022-11-07T02:55:18.159Z,1.00
2022-11-07T02:57:45.936Z,3.20
2022-11-07T03:00:16.075Z,1.60
2022-11-07T03:02:46.913Z,1.87
2022-11-07T03:05:15.671Z,2.30
2022-11-07T03:07:43.556Z,2.83
2022-11-07T03:10:11.847Z,1.90
2022-11-07T03:12:40.918Z,1.30
2022-11-07T03:15:10.764Z,1.63
2022-11-07T03:17:38.756Z,1.73
2022-11-07T03:20:07.947Z,1.20
2022-11-07T03:22:35.681Z,1.97
2022-11-07T03:25:03.371Z,1.40
2022-11-07T03:27:31.022Z,1.93
2022-11-07T03:30:00.005Z,1.80
2022-11-07T03:32:27.685Z,4.17
2022-11-07T03:34:55.392Z,3.70
2022-11-07T03:37:23.096Z,3.73
2022-11-07T03:39:50.778Z,3.83
2022-11-07T03:42:18.629Z,2.07
2022-11-07T03:44:46.299Z,4.27
2022-11-07T03:47:17.986Z,2.23
2022-11-07T03:49:45.647Z,4.80
2022-11-07T03:52:13.324Z,1.10
2022-11-07T03:54:41.043Z,2.50
2022-11-07T03:57:08.704Z,1.30
2022-11-07T03:59:36.494Z,1.30
2022-11-07T04:02:04.294Z,2.17
2022-11-07T04:04:33.512Z,6.30
2022-11-07T04:07:01.219Z,1.33
2022-11-07T04:09:28.883Z,1.33
2022-11-07T04:12:14.110Z,2.33
2022-11-07T04:14:59.231Z,1.70
2022-11-07T04:17:28.699Z,1.73
2022-11-07T04:19:57.899Z,3.43
2022-11-07T04:22:26.658Z,1.27
2022-11-07T04:24:54.668Z,1.67
2022-11-07T04:27:39.952Z,1.73
2022-11-07T04:30:28.012Z,2.63
2022-11-07T04:32:57.180Z,1.40
2022-11-07T04:35:28.569Z,2.43
2022-11-07T04:37:56.267Z,1.93
2022-11-07T04:40:23.963Z,1.83
2022-11-07T04:42:52.073Z,2.70
2022-11-07T04:45:19.944Z,1.63
2022-11-07T04:47:48.018Z,1.87
2022-11-07T04:50:17.778Z,2.10
2022-11-07T04:52:48.009Z,2.50
2022-11-07T04:55:21.260Z,8.13
2022-11-07T04:57:49.324Z,2.40
2022-11-07T05:00:18.259Z,1.17
2022-11-07T05:02:46.368Z,1.70
2022-11-07T05:05:14.660Z,2.13
2022-11-07T05:07:42.657Z,2.43
2022-11-07T05:10:18.662Z,2.27
2022-11-07T05:12:46.655Z,1.67
2022-11-07T05:15:14.434Z,1.60
2022-11-07T05:17:42.112Z,2.23
2022-11-07T05:20:26.089Z,2.87
2022-11-07T05:23:11.293Z,2.87
2022-11-07T05:25:40.413Z,1.70
2022-11-07T05:28:08.173Z,1.80
2022-11-07T05:30:39.481Z,3.93
2022-11-07T05:33:07.194Z,2.33
2022-11-07T05:35:34.947Z,3.27
2022-11-07T05:38:02.653Z,3.53
2022-11-07T05:40:30.593Z,4.40
2022-11-07T05:43:03.346Z,4.33
2022-11-07T05:45:32.565Z,2.70
2022-11-07T05:48:00.917Z,3.07
2022-11-07T05:50:29.299Z,8.00
2022-11-07T05:52:57.559Z,4.40
2022-11-07T05:55:25.975Z,1.87
2022-11-07T05:57:54.152Z,5.40
2022-11-07T06:00:24.204Z,3.60
2022-11-07T06:02:56.561Z,3.33
2022-11-07T06:05:24.997Z,1.73
2022-11-07T06:07:52.771Z,1.90
2022-11-07T06:10:20.957Z,3.63
2022-11-07T06:12:51.383Z,3.37
2022-11-07T06:15:24.195Z,3.03
2022-11-07T06:17:51.882Z,4.53
2022-11-07T06:20:19.577Z,3.57
2022-11-07T06:22:47.254Z,5.77
2022-11-07T06:25:15.085Z,3.73
2022-11-07T06:27:42.797Z,5.63
2022-11-07T06:30:11.501Z,2.33
2022-11-07T06:32:44.174Z,7.43
2022-11-07T06:35:12.370Z,3.90
2022-11-07T06:37:40.085Z,4.47
2022-11-07T06:40:09.234Z,10.10
2022-11-07T06:42:36.974Z,4.27
2022-11-07T06:45:05.492Z,3.17
2022-11-07T06:47:33.164Z,2.70
2022-11-07T06:50:02.201Z,7.20
2022-11-07T06:52:29.944Z,4.63
2022-11-07T06:54:57.637Z,6.70
2022-11-07T06:57:25.291Z,3.20
2022-11-07T06:59:52.932Z,4.13
2022-11-07T07:02:44.301Z,11.60
2022-11-07T07:05:10.868Z,4.90
2022-11-07T07:07:38.574Z,2.90
2022-11-07T07:10:07.463Z,3.30
2022-11-07T07:12:35.861Z,3.43
2022-11-07T07:15:03.715Z,2.40
2022-11-07T07:17:31.681Z,3.07
2022-11-07T07:19:59.420Z,2.40
2022-11-07T07:22:28.513Z,9.53
2022-11-07T07:24:56.203Z,8.93
2022-11-07T07:27:23.926Z,3.90
2022-11-07T07:29:53.390Z,2.83
2022-11-07T07:32:21.252Z,2.03
2022-11-07T07:34:49.143Z,6.10
2022-11-07T07:37:16.828Z,2.00
2022-11-07T07:39:45.846Z,2.20
2022-11-07T07:42:13.497Z,3.77
2022-11-07T07:44:45.322Z,3.90
2022-11-07T07:47:13.017Z,2.80
2022-11-07T07:49:40.698Z,3.10
2022-11-07T07:52:08.393Z,4.20
2022-11-07T07:54:37.560Z,3.80
2022-11-07T07:57:06.565Z,7.30
2022-11-07T07:59:34.214Z,2.73
2022-11-07T08:02:02.026Z,5.83
2022-11-07T08:04:29.817Z,2.00
2022-11-07T08:06:57.514Z,2.77
2022-11-07T08:09:25.180Z,2.07
2022-11-07T08:11:52.835Z,2.60
2022-11-07T08:14:21.867Z,2.33
2022-11-07T08:16:49.755Z,1.97
2022-11-07T08:19:17.400Z,6.70
2022-11-07T08:21:45.502Z,2.93
2022-11-07T08:24:14.248Z,1.93
2022-11-07T08:26:41.930Z,1.40
2022-11-07T08:29:09.601Z,4.20
2022-11-07T08:31:38.962Z,1.67
2022-11-07T08:34:06.752Z,4.23
2022-11-07T08:36:34.481Z,2.57
2022-11-07T08:39:02.184Z,4.80
2022-11-07T08:41:29.924Z,1.27
2022-11-07T08:43:57.595Z,4.97
2022-11-07T08:46:25.249Z,1.10
2022-11-07T08:48:54.262Z,1.10
2022-11-07T08:51:21.935Z,2.33
2022-11-07T08:53:49.676Z,2.17
2022-11-07T08:56:17.325Z,2.07
2022-11-07T08:58:44.960Z,2.37
2022-11-07T09:01:12.661Z,3.00
2022-11-07T09:03:47.203Z,3.90
2022-11-07T09:06:18.807Z,2.03
2022-11-07T09:08:46.946Z,1.63
2022-11-07T09:11:15.656Z,4.50
2022-11-07T09:13:43.556Z,9.00
2022-11-07T09:16:12.197Z,10.20
2022-11-07T09:18:39.961Z,2.20
2022-11-07T09:21:07.672Z,2.93
2022-11-07T09:23:36.699Z,2.27
2022-11-07T09:26:04.491Z,3.30
2022-11-07T09:28:32.185Z,2.37
2022-11-07T09:31:02.068Z,2.20
2022-11-07T09:33:30.347Z,1.97
2022-11-07T09:36:01.515Z,1.70
2022-11-07T09:38:29.737Z,1.70
2022-11-07T09:41:05.936Z,2.90
2022-11-07T09:43:48.938Z,5.00
2022-11-07T09:46:28.646Z,3.53
2022-11-07T09:49:02.062Z,3.40
2022-11-07T09:51:35.496Z,1.60
2022-11-07T09:54:07.613Z,1.83
2022-11-07T09:56:36.703Z,2.70
2022-11-07T09:59:14.068Z,2.30
2022-11-07T10:01:42.802Z,1.40
2022-11-07T10:04:24.724Z,2.40
2022-11-07T10:06:59.492Z,3.83
2022-11-07T10:09:37.457Z,4.40
2022-11-07T10:12:18.194Z,1.17
2022-11-07T10:14:55.052Z,1.70
2022-11-07T10:17:35.036Z,2.13
2022-11-07T10:20:19.338Z,1.80
2022-11-07T10:23:01.867Z,1.10
2022-11-07T10:25:35.074Z,2.60
2022-11-07T10:28:13.938Z,2.50
2022-11-07T10:30:44.429Z,2.30
2022-11-07T10:33:22.316Z,2.10
2022-11-07T10:35:55.848Z,1.00
2022-11-07T10:38:27.168Z,0.90
2022-11-07T10:40:55.298Z,2.70
2022-11-07T10:43:32.824Z,2.70
2022-11-07T10:46:02.163Z,1.30
2022-11-07T10:48:30.402Z,7.93
2022-11-07T10:50:58.617Z,1.73
2022-11-07T10:53:28.024Z,2.70
2022-11-07T10:55:56.877Z,1.53
2022-11-07T10:58:28.174Z,1.80
2022-11-07T11:01:02.780Z,1.73
2022-11-07T11:03:43.811Z,3.47
2022-11-07T11:06:23.661Z,1.57
2022-11-07T11:08:53.572Z,2.10
2022-11-07T11:11:33.338Z,1.00
2022-11-07T11:14:13.759Z,2.37
2022-11-07T11:16:43.666Z,6.00
2022-11-07T11:19:22.189Z,1.13
2022-11-07T11:21:51.730Z,1.67
2022-11-07T11:24:31.125Z,0.93
2022-11-07T11:27:02.934Z,2.10
2022-11-07T11:29:40.100Z,1.47
2022-11-07T11:32:16.606Z,1.30
2022-11-07T11:34:54.729Z,1.20
2022-11-07T11:37:24.783Z,2.83
2022-11-07T11:40:06.226Z,1.47
2022-11-07T11:42:44.108Z,7.03
2022-11-07T11:45:18.936Z,1.53
2022-11-07T11:47:55.560Z,3.00
2022-11-07T11:50:30.124Z,2.23
2022-11-07T11:53:00.389Z,6.13
2022-11-07T11:55:36.556Z,2.17
2022-11-07T11:58:15.743Z,3.37
2022-11-07T12:00:53.348Z,1.87
2022-11-07T12:03:35.346Z,1.33
2022-11-07T12:06:20.349Z,5.83
2022-11-07T12:09:07.314Z,4.00
2022-11-07T12:11:44.387Z,2.37
2022-11-07T12:14:37.008Z,5.63
2022-11-07T12:17:11.548Z,1.27
2022-11-07T12:19:47.860Z,3.17
2022-11-07T12:22:21.616Z,4.67
2022-11-07T12:24:57.161Z,3.77
2022-11-07T12:27:30.661Z,1.93
2022-11-07T12:30:07.411Z,1.57
2022-11-07T12:32:50.302Z,4.93
2022-11-07T12:35:30.246Z,2.60
2022-11-07T12:38:12.882Z,2.47
2022-11-07T12:40:52.407Z,3.43
2022-11-07T12:43:33.391Z,6.20
2022-11-07T12:46:09.879Z,2.53
2022-11-07T12:48:57.526Z,1.20
2022-11-07T12:51:37.687Z,6.23
2022-11-07T12:54:16.728Z,2.33
2022-11-07T12:56:48.302Z,1.77
2022-11-07T12:59:22.021Z,2.87
2022-11-07T13:01:59.394Z,1.17
2022-11-07T13:04:35.625Z,1.10
2022-11-07T13:07:10.557Z,3.43
2022-11-07T13:09:47.773Z,1.20
2022-11-07T13:12:23.328Z,3.63
2022-11-07T13:14:51.329Z,1.50
2022-11-07T13:17:21.118Z,3.90
2022-11-07T13:20:01.344Z,1.87
2022-11-07T13:22:35.210Z,6.67
2022-11-07T13:25:25.016Z,2.17
2022-11-07T13:28:27.571Z,1.93
2022-11-07T13:30:58.921Z,2.50
2022-11-07T13:33:31.782Z,1.20
2022-11-07T13:36:13.107Z,2.30
2022-11-07T13:38:49.278Z,1.90
2022-11-07T13:41:17.910Z,2.10
2022-11-07T13:43:55.243Z,1.50
2022-11-07T13:46:28.535Z,2.77
2022-11-07T13:48:59.089Z,3.67
2022-11-07T13:51:33.451Z,4.30
2022-11-07T13:54:12.452Z,2.17
2022-11-07T13:56:44.476Z,3.17
2022-11-07T13:59:21.469Z,4.80
2022-11-07T14:01:57.149Z,1.17
2022-11-07T14:04:28.580Z,2.80
2022-11-07T14:07:00.723Z,3.07
2022-11-07T14:09:31.396Z,2.80
2022-11-07T14:11:59.204Z,3.00
2022-11-07T14:14:28.337Z,2.77
2022-11-07T14:17:00.497Z,1.00
2022-11-07T14:19:30.243Z,1.50
2022-11-07T14:22:00.182Z,1.53
2022-11-07T14:24:32.548Z,2.50
2022-11-07T14:27:02.527Z,3.93
2022-11-07T14:29:30.411Z,2.13
2022-11-07T14:32:03.546Z,1.90
2022-11-07T14:34:31.492Z,1.10
2022-11-07T14:37:02.695Z,1.73
2022-11-07T14:39:32.803Z,3.30
2022-11-07T14:42:03.304Z,4.20
2022-11-07T14:44:55.253Z,3.60
2022-11-07T14:47:24.946Z,4.00
2022-11-07T14:49:54.143Z,1.70
2022-11-07T14:52:26.516Z,3.17
2022-11-07T14:55:00.970Z,2.67
2022-11-07T14:57:28.861Z,1.40
2022-11-07T14:59:56.910Z,3.63
2022-11-07T15:02:28.877Z,2.37
2022-11-07T15:05:05.400Z,2.80
2022-11-07T15:07:47.607Z,3.13
2022-11-07T15:10:24.830Z,1.43
2022-11-07T15:12:55.350Z,2.70
2022-11-07T15:15:24.767Z,1.80
2022-11-07T15:17:54.929Z,3.57
2022-11-07T15:20:34.655Z,2.17
2022-11-07T15:23:05.969Z,2.87
2022-11-07T15:25:36.404Z,3.03
2022-11-07T15:28:23.021Z,1.33
2022-11-07T15:30:51.906Z,1.63
2022-11-07T15:33:20.733Z,2.47
2022-11-07T15:35:50.716Z,1.90
2022-11-07T15:38:22.838Z,4.30
2022-11-07T15:40:51.486Z,3.17
2022-11-07T15:43:19.349Z,4.83
2022-11-07T15:45:48.489Z,4.80
2022-11-07T15:48:18.673Z,2.77
2022-11-07T15:50:48.586Z,3.07
2022-11-07T15:53:21.484Z,2.47
2022-11-07T15:55:52.023Z,2.77
2022-11-07T15:58:22.532Z,4.90
2022-11-07T16:00:50.242Z,2.27
2022-11-07T16:03:19.815Z,2.43
2022-11-07T16:05:48.574Z,4.03
2022-11-07T16:08:20.226Z,1.33
2022-11-07T16:10:51.804Z,4.83
2022-11-07T16:13:19.486Z,3.20
2022-11-07T16:15:50.472Z,5.83
2022-11-07T16:18:20.419Z,2.90
2022-11-07T16:20:49.476Z,2.67
2022-11-07T16:23:18.128Z,6.73
2022-11-07T16:25:48.178Z,10.23
2022-11-07T16:28:24.528Z,4.33
2022-11-07T16:30:52.415Z,2.80
2022-11-07T16:33:20.605Z,6.00
2022-11-07T16:35:49.693Z,5.47
2022-11-07T16:38:19.767Z,4.80
2022-11-07T16:40:47.991Z,5.13
2022-11-07T16:43:15.634Z,2.57
2022-11-07T16:45:48.763Z,4.37
2022-11-07T16:48:20.357Z,4.57
2022-11-07T16:50:48.329Z,4.93
2022-11-07T16:53:16.473Z,6.03
2022-11-07T16:55:49.460Z,6.43
2022-11-07T16:58:26.033Z,4.70
2022-11-07T17:00:56.292Z,8.57
2022-11-07T17:03:24.442Z,5.20
2022-11-07T17:05:53.684Z,4.90
2022-11-07T17:08:25.522Z,5.73
2022-11-07T17:10:55.705Z,1.80
2022-11-07T17:13:23.461Z,4.70
2022-11-07T17:15:51.379Z,2.67
2022-11-07T17:18:22.263Z,3.30
2022-11-07T17:20:52.067Z,2.60
2022-11-07T17:23:25.355Z,3.80
2022-11-07T17:25:59.529Z,3.53
2022-11-07T17:28:27.196Z,5.80
2022-11-07T17:30:54.949Z,4.53
2022-11-07T17:33:24.089Z,2.97
2022-11-07T17:35:55.854Z,5.37
2022-11-07T17:38:25.275Z,4.33
2022-11-07T17:40:53.185Z,4.90
2022-11-07T17:43:20.884Z,6.90
2022-11-07T17:45:48.671Z,3.73
2022-11-07T17:48:16.810Z,3.80
2022-11-07T17:50:46.155Z,3.00
2022-11-07T17:53:13.831Z,6.60
2022-11-07T17:55:41.701Z,3.90
2022-11-07T17:58:11.044Z,3.40
2022-11-07T18:00:38.756Z,3.27
2022-11-07T18:03:06.825Z,8.23
2022-11-07T18:05:34.912Z,6.43
2022-11-07T18:08:03.954Z,6.00
2022-11-07T18:10:32.782Z,6.47
2022-11-07T18:13:00.930Z,5.37
2022-11-07T18:15:28.700Z,4.30
2022-11-07T18:17:56.374Z,7.80
2022-11-07T18:20:24.031Z,6.73
2022-11-07T18:22:51.725Z,4.70
2022-11-07T18:25:21.164Z,4.30
2022-11-07T18:27:49.812Z,6.60
2022-11-07T18:30:18.760Z,6.33
2022-11-07T18:32:46.518Z,8.30
2022-11-07T18:35:14.202Z,7.80
2022-11-07T18:37:41.893Z,6.77
2022-11-07T18:40:11.501Z,9.53
2022-11-07T18:42:45.462Z,9.27
2022-11-07T18:45:13.878Z,8.60
2022-11-07T18:47:42.582Z,6.17
2022-11-07T18:50:11.158Z,6.00
2022-11-07T18:52:38.844Z,8.40
2022-11-07T18:55:07.147Z,9.47
2022-11-07T18:57:34.761Z,5.63
2022-11-07T19:00:10.557Z,6.03
2022-11-07T19:02:40.886Z,5.30
2022-11-07T19:05:08.942Z,6.60
2022-11-07T19:07:39.672Z,4.20
2022-11-07T19:10:08.278Z,6.50
2022-11-07T19:12:36.686Z,4.77
2022-11-07T19:15:06.876Z,7.20
2022-11-07T19:17:35.743Z,9.70
2022-11-07T19:20:04.585Z,11.53
2022-11-07T19:22:32.815Z,8.47
2022-11-07T19:25:00.498Z,6.07
2022-11-07T19:27:29.510Z,8.77
2022-11-07T19:29:58.358Z,7.00
2022-11-07T19:32:27.454Z,6.03
2022-11-07T19:34:55.487Z,5.00
2022-11-07T19:37:23.126Z,6.70
2022-11-07T19:39:51.849Z,7.00
2022-11-07T19:42:19.529Z,6.70
2022-11-07T19:44:51.552Z,7.00
2022-11-07T19:47:20.927Z,8.33
2022-11-07T19:49:51.417Z,10.70
2022-11-07T19:52:19.103Z,4.57
2022-11-07T19:54:49.716Z,5.77
2022-11-07T19:57:17.844Z,5.67
2022-11-07T19:59:45.507Z,5.97
2022-11-07T20:05:03.276Z,4.03
2022-11-07T20:07:31.017Z,7.20
2022-11-07T20:09:59.233Z,8.03
2022-11-07T20:12:26.977Z,5.10
2022-11-07T20:14:54.662Z,8.77
2022-11-07T20:17:22.369Z,3.90
2022-11-07T20:19:50.187Z,9.50
2022-11-07T20:22:19.317Z,6.23
2022-11-07T20:24:46.950Z,9.43
2022-11-07T20:27:14.739Z,4.40
2022-11-07T20:29:42.414Z,4.53
2022-11-07T20:32:11.759Z,6.13
2022-11-07T20:34:39.522Z,9.13
2022-11-07T20:37:07.228Z,7.50
2022-11-07T20:39:36.330Z,12.20
2022-11-07T20:42:04.049Z,5.90
2022-11-07T20:44:31.693Z,6.57
2022-11-07T20:46:59.385Z,5.53
2022-11-07T20:49:27.103Z,5.90
2022-11-07T20:51:54.783Z,6.30
2022-11-07T20:54:22.922Z,5.90
2022-11-07T20:56:52.032Z,7.03
2022-11-07T20:59:19.702Z,6.87
2022-11-07T21:01:50.783Z,5.73
2022-11-07T21:04:19.257Z,9.60
2022-11-07T21:06:47.676Z,10.03
2022-11-07T21:09:15.327Z,9.33
2022-11-07T21:11:43.059Z,7.67
2022-11-07T21:14:12.036Z,4.73
2022-11-07T21:16:39.711Z,8.53
2022-11-07T21:19:08.650Z,5.53
2022-11-07T21:21:36.337Z,9.50
2022-11-07T21:24:04.509Z,4.53
2022-11-07T21:26:35.416Z,10.37
2022-11-07T21:29:06.677Z,6.33
2022-11-07T21:31:37.786Z,5.47
2022-11-07T21:34:06.984Z,6.50
2022-11-07T21:36:36.074Z,6.90
2022-11-07T21:39:04.525Z,6.07
2022-11-07T21:41:32.587Z,6.07
2022-11-07T21:44:00.276Z,6.20
2022-11-07T21:46:30.348Z,4.30
2022-11-07T21:49:00.852Z,11.13
2022-11-07T21:51:30.724Z,7.73
2022-11-07T21:53:59.171Z,6.73
2022-11-07T21:56:28.036Z,6.13
2022-11-07T21:58:58.809Z,6.27
2022-11-07T22:01:27.142Z,5.73
2022-11-07T22:04:12.185Z,4.67
2022-11-07T22:06:43.964Z,6.30
2022-11-07T22:09:14.954Z,4.30
2022-11-07T22:11:42.966Z,6.27
2022-11-07T22:14:13.440Z,6.63
2022-11-07T22:16:41.269Z,6.63
2022-11-07T22:19:12.473Z,4.60
2022-11-07T22:21:42.760Z,6.90
2022-11-07T22:24:10.992Z,6.80
2022-11-07T22:26:38.716Z,5.60
2022-11-07T22:29:06.434Z,3.80
2022-11-07T22:31:34.131Z,4.23
2022-11-07T22:34:01.862Z,6.87
2022-11-07T22:36:30.363Z,5.97
2022-11-07T22:38:59.657Z,7.90
2022-11-07T22:41:29.131Z,4.20
2022-11-07T22:43:57.888Z,3.83
2022-11-07T22:46:28.315Z,3.90
2022-11-07T22:48:56.280Z,12.33
2022-11-07T22:51:26.077Z,7.07
2022-11-07T22:53:59.513Z,3.20
2022-11-07T22:56:27.282Z,4.43
2022-11-07T22:58:55.323Z,4.30
2022-11-07T23:01:25.561Z,5.67
2022-11-07T23:03:55.001Z,4.80
2022-11-07T23:06:23.957Z,5.73
2022-11-07T23:08:52.889Z,5.00
2022-11-07T23:14:14.314Z,4.30
2022-11-07T23:16:45.524Z,4.73
2022-11-07T23:19:15.443Z,3.90
2022-11-07T23:21:43.656Z,8.20
2022-11-07T23:24:11.855Z,6.47
2022-11-07T23:26:41.281Z,7.20
2022-11-07T23:29:12.601Z,5.30
2022-11-07T23:31:40.847Z,7.60
2022-11-07T23:34:09.198Z,6.20
2022-11-07T23:36:37.184Z,7.90
2022-11-07T23:39:06.618Z,4.83
2022-11-07T23:41:35.174Z,19.47
2022-11-07T23:44:04.682Z,20.60
2022-11-07T23:46:49.760Z,24.20
2022-11-07T23:49:49.340Z,15.47
2022-11-07T23:52:17.827Z,18.07
2022-11-07T23:55:02.892Z,14.73
2022-11-07T23:57:33.474Z,10.57
